Terminal Aerodrome Forecast
Issued by NWS

Home | Current Version | Previous Version | Text Only | Print | Product List | Glossary On
Versions: 1 2 3 4 5 6 7 8 9 10 11 12 13 14 15 16
694
FTUS44 KBMX 051739
TAFANB
TAF
KANB 051739Z 0518/0618 30013G24KT P6SM SCT080
      TEMPO 0521/0601 33013G24KT
     FM060100 35010KT P6SM SKC
     FM060500 VRB04KT P6SM SKC
     FM061400 34012G18KT P6SM SKC=

USA.gov is the U.S. government's official web portal to all federal, state and local government web resources and services.